Time;durP1;ratioP1;P1;durP2;ratioP2;P2;SDS_P1;SDS_P2;PMS_P1;PMS_P2;Temp;Humidity;BMP_temperature;BMP_pressure;BME280_temperature;BME280_humidity;BME280_pressure;Samples;Min_cycle;Max_cycle;Signal;HPM_P1;HPM_P2
2023/09/30 00:01:58;;;;;;;10.67;4.07;;;13.10;99.90;;;;;;4993319;28;20733;-67
2023/09/30 00:04:24;;;;;;;11.40;3.87;;;13.10;99.90;;;;;;4993565;28;20404;-67
2023/09/30 00:06:50;;;;;;;10.63;3.93;;;13.00;99.90;;;;;;4993767;28;20408;-66
2023/09/30 00:09:15;;;;;;;8.93;3.87;;;13.10;99.90;;;;;;4975559;28;20697;-79
2023/09/30 00:11:41;;;;;;;8.87;3.20;;;13.00;99.90;;;;;;4993003;28;20200;-68
2023/09/30 00:14:07;;;;;;;10.70;3.90;;;13.10;99.90;;;;;;4993714;28;20169;-66
2023/09/30 00:16:33;;;;;;;21.03;3.00;;;13.00;99.90;;;;;;4976040;28;20177;-69
2023/09/30 00:18:58;;;;;;;6.07;3.10;;;13.00;99.90;;;;;;4993735;28;20169;-67
2023/09/30 00:21:24;;;;;;;11.57;3.40;;;13.00;99.90;;;;;;4992722;28;20189;-66
2023/09/30 00:23:50;;;;;;;8.40;3.50;;;13.00;99.90;;;;;;4993670;28;20173;-66
2023/09/30 00:26:16;;;;;;;10.63;4.13;;;13.00;99.90;;;;;;4994710;28;20518;-70
2023/09/30 00:28:41;;;;;;;10.73;3.80;;;13.00;99.90;;;;;;4996974;28;20657;-66
2023/09/30 00:31:10;;;;;;;7.07;4.97;;;13.00;99.90;;;;;;4996461;28;20674;-66
2023/09/30 00:33:36;;;;;;;9.10;3.67;;;12.90;99.90;;;;;;4997571;28;20228;-68
2023/09/30 00:36:09;;;;;;;12.07;3.80;;;12.90;99.90;;;;;;4997484;28;20434;-66
2023/09/30 00:38:36;;;;;;;16.43;8.80;;;12.90;99.90;;;;;;4997244;28;20410;-66
2023/09/30 00:41:02;;;;;;;14.00;4.10;;;12.90;99.90;;;;;;4996260;28;20929;-66
2023/09/30 00:43:27;;;;;;;9.20;4.00;;;12.90;99.90;;;;;;4979692;28;20438;-66
2023/09/30 00:46:06;;;;;;;14.03;3.87;;;12.90;99.90;;;;;;4996380;28;20649;-66
2023/09/30 00:48:34;;;;;;;13.73;3.73;;;12.90;99.90;;;;;;4997143;28;20211;-67
2023/09/30 00:51:00;;;;;;;7.93;2.93;;;12.80;99.90;;;;;;4996165;28;20428;-67
2023/09/30 00:53:26;;;;;;;8.00;3.93;;;12.80;99.90;;;;;;4996985;28;20385;-69
2023/09/30 00:55:54;;;;;;;12.73;4.43;;;12.70;99.90;;;;;;4996950;28;20397;-66
2023/09/30 00:58:20;;;;;;;18.63;3.47;;;12.60;99.90;;;;;;4996863;28;20389;-69
2023/09/30 01:00:48;;;;;;;10.13;3.97;;;12.70;99.90;;;;;;4995811;28;20459;-69
2023/09/30 01:03:14;;;;;;;8.47;3.50;;;12.70;99.90;;;;;;4996857;28;20415;-68
2023/09/30 01:05:40;;;;;;;12.80;4.20;;;12.60;99.90;;;;;;4996089;28;20422;-69
2023/09/30 01:08:06;;;;;;;11.33;3.57;;;12.60;99.90;;;;;;4996727;28;20389;-66
2023/09/30 01:10:31;;;;;;;12.50;3.60;;;12.70;99.90;;;;;;4995781;28;20176;-69
2023/09/30 01:12:57;;;;;;;15.60;3.70;;;12.70;99.90;;;;;;4979286;28;20173;-70
2023/09/30 01:15:23;;;;;;;6.97;3.10;;;12.60;99.90;;;;;;4996576;28;20593;-67
2023/09/30 01:17:49;;;;;;;8.60;3.50;;;12.70;99.90;;;;;;4996768;28;20177;-66
2023/09/30 01:20:19;;;;;;;12.27;3.53;;;12.70;99.90;;;;;;4995449;28;20205;-66
2023/09/30 01:22:45;;;;;;;12.63;3.77;;;12.70;99.90;;;;;;4996119;28;20482;-66
2023/09/30 01:25:11;;;;;;;6.20;3.50;;;12.70;99.90;;;;;;4996151;28;20456;-66
2023/09/30 01:27:37;;;;;;;13.90;3.37;;;12.70;99.90;;;;;;4996244;28;21029;-66
2023/09/30 01:30:03;;;;;;;18.50;4.10;;;12.70;99.90;;;;;;4995589;28;20433;-67
2023/09/30 01:32:28;;;;;;;6.60;3.30;;;12.70;99.90;;;;;;4996310;28;20527;-69
2023/09/30 01:34:54;;;;;;;11.70;3.10;;;12.70;99.90;;;;;;4996366;28;20400;-67
2023/09/30 01:37:20;;;;;;;6.23;4.43;;;12.70;99.90;;;;;;4994563;28;20177;-66
2023/09/30 01:39:45;;;;;;;15.63;3.50;;;12.70;99.90;;;;;;4995204;28;20181;-67
2023/09/30 01:42:11;;;;;;;7.57;3.50;;;12.70;99.90;;;;;;4996046;28;20247;-66
2023/09/30 01:44:37;;;;;;;8.43;3.20;;;12.70;99.90;;;;;;4996103;28;20212;-66
2023/09/30 01:47:03;;;;;;;8.90;3.20;;;12.70;99.90;;;;;;4996168;28;20412;-66
2023/09/30 01:49:28;;;;;;;12.13;3.30;;;12.70;99.90;;;;;;4995805;28;20248;-67
2023/09/30 01:51:54;;;;;;;9.43;2.90;;;12.70;99.90;;;;;;4978064;28;20189;-68
2023/09/30 01:54:20;;;;;;;13.67;3.80;;;12.70;99.90;;;;;;4995647;28;20165;-67
2023/09/30 01:56:46;;;;;;;6.37;3.10;;;12.60;99.90;;;;;;4995425;28;20247;-68
2023/09/30 01:59:11;;;;;;;5.80;3.13;;;12.70;99.90;;;;;;4995825;28;20577;-69
2023/09/30 02:01:37;;;;;;;11.23;3.73;;;12.60;99.90;;;;;;4994813;28;20188;-66
2023/09/30 02:04:03;;;;;;;8.30;3.13;;;12.60;99.90;;;;;;4978320;28;20589;-69
2023/09/30 02:06:28;;;;;;;7.00;2.90;;;12.60;99.90;;;;;;4995465;28;20200;-66
2023/09/30 02:08:54;;;;;;;10.97;3.97;;;12.50;99.90;;;;;;4995675;28;20169;-66
2023/09/30 02:11:20;;;;;;;15.83;3.60;;;12.50;99.90;;;;;;4994444;28;20658;-66
2023/09/30 02:13:45;;;;;;;8.47;3.27;;;12.50;99.90;;;;;;4995010;28;20521;-69
2023/09/30 02:16:13;;;;;;;6.50;3.00;;;12.50;99.90;;;;;;4995584;28;20203;-66
2023/09/30 02:18:40;;;;;;;13.97;3.57;;;12.50;99.90;;;;;;4995562;28;20177;-66
2023/09/30 02:21:07;;;;;;;9.40;3.27;;;12.50;99.90;;;;;;4994417;28;20439;-67
2023/09/30 02:23:33;;;;;;;10.70;4.57;;;12.40;99.90;;;;;;4995134;28;20909;-67
2023/09/30 02:25:59;;;;;;;12.93;3.07;;;12.40;99.90;;;;;;4995234;28;20542;-70
2023/09/30 02:28:25;;;;;;;12.97;3.37;;;12.40;99.90;;;;;;4994952;28;20387;-67
2023/09/30 02:30:51;;;;;;;13.40;3.30;;;12.40;99.90;;;;;;4994075;28;20578;-69
2023/09/30 02:33:16;;;;;;;17.70;4.63;;;12.40;99.90;;;;;;4995234;28;20173;-68
2023/09/30 02:35:45;;;;;;;6.80;3.90;;;12.30;99.90;;;;;;4977831;28;20301;-69
2023/09/30 02:38:12;;;;;;;12.33;3.13;;;12.30;99.90;;;;;;4995078;28;20412;-69
2023/09/30 02:40:38;;;;;;;11.03;3.27;;;12.40;99.90;;;;;;4994312;28;20781;-68
2023/09/30 02:43:04;;;;;;;13.00;3.10;;;12.40;99.90;;;;;;4995097;28;20412;-68
2023/09/30 02:45:30;;;;;;;11.73;3.30;;;12.40;99.90;;;;;;4994826;28;20459;-67
2023/09/30 02:47:55;;;;;;;8.23;3.33;;;12.40;99.90;;;;;;4994609;28;20401;-66
2023/09/30 02:50:21;;;;;;;13.33;4.23;;;12.50;99.90;;;;;;4976020;28;20177;-66
2023/09/30 02:52:47;;;;;;;8.20;3.40;;;12.50;99.90;;;;;;4994695;28;20189;-69
2023/09/30 02:55:12;;;;;;;13.03;4.07;;;12.50;99.90;;;;;;4994960;28;20634;-69
2023/09/30 02:57:39;;;;;;;9.87;3.40;;;12.50;99.90;;;;;;4994563;28;20207;-67
2023/09/30 03:00:20;;;;;;;12.50;3.80;;;12.40;99.90;;;;;;4993795;28;20256;-66
2023/09/30 03:02:46;;;;;;;10.47;3.30;;;12.50;99.90;;;;;;4977105;28;20440;-67
2023/09/30 03:05:13;;;;;;;14.23;4.53;;;12.50;99.90;;;;;;4994089;28;20485;-69
2023/09/30 03:07:38;;;;;;;10.27;3.33;;;12.40;99.90;;;;;;4994280;28;20171;-67
2023/09/30 03:10:05;;;;;;;10.70;4.23;;;12.50;99.90;;;;;;4993582;28;20474;-68
2023/09/30 03:12:31;;;;;;;7.13;4.97;;;12.50;99.90;;;;;;4994554;28;20189;-66
2023/09/30 03:14:57;;;;;;;13.27;2.80;;;12.50;99.90;;;;;;4977035;28;20729;-68
2023/09/30 03:17:25;;;;;;;9.43;3.03;;;12.50;99.90;;;;;;4994439;28;20431;-69
2023/09/30 03:19:51;;;;;;;11.33;2.87;;;12.50;99.90;;;;;;4975854;28;20434;-69
2023/09/30 03:22:17;;;;;;;10.13;2.87;;;12.50;99.90;;;;;;4994407;28;20489;-66
2023/09/30 03:24:42;;;;;;;22.20;5.00;;;12.50;99.90;;;;;;4993705;28;20746;-68
2023/09/30 03:27:08;;;;;;;11.07;3.33;;;12.40;99.90;;;;;;4994154;28;20231;-69
2023/09/30 03:29:38;;;;;;;8.93;3.13;;;12.50;99.90;;;;;;4993290;28;20646;-73
2023/09/30 03:32:03;;;;;;;9.57;3.57;;;12.50;99.90;;;;;;4993997;28;20308;-70
2023/09/30 03:34:29;;;;;;;11.40;3.33;;;12.50;99.90;;;;;;4976883;28;20513;-68
2023/09/30 03:36:58;;;;;;;9.70;3.40;;;12.50;99.90;;;;;;4994302;28;20193;-66
2023/09/30 03:39:27;;;;;;;11.57;3.37;;;12.40;99.90;;;;;;4993924;28;20545;-66
2023/09/30 03:41:54;;;;;;;15.10;3.67;;;12.30;99.90;;;;;;4976546;28;20445;-69
2023/09/30 03:44:20;;;;;;;13.30;4.90;;;12.30;99.90;;;;;;4975851;28;20423;-70
2023/09/30 03:46:46;;;;;;;10.40;3.40;;;12.20;99.90;;;;;;4993916;28;20425;-68
2023/09/30 03:49:12;;;;;;;8.70;3.60;;;12.20;99.90;;;;;;4993969;28;20169;-66
2023/09/30 03:51:38;;;;;;;10.00;3.30;;;12.30;99.90;;;;;;4992847;28;20275;-67
2023/09/30 03:54:03;;;;;;;8.30;2.83;;;12.30;99.90;;;;;;4976495;28;20510;-69
2023/09/30 03:56:29;;;;;;;7.83;2.90;;;12.30;99.90;;;;;;4993773;28;20188;-67
2023/09/30 03:58:55;;;;;;;12.43;3.87;;;12.20;99.90;;;;;;4993813;28;20208;-69
2023/09/30 04:01:21;;;;;;;10.87;3.30;;;12.10;99.90;;;;;;4992211;28;20193;-69
2023/09/30 04:03:46;;;;;;;7.80;2.83;;;12.10;99.90;;;;;;4985198;28;20208;-66
2023/09/30 04:06:12;;;;;;;13.13;3.60;;;12.10;99.90;;;;;;4976361;28;20311;-70
2023/09/30 04:08:38;;;;;;;10.90;5.30;;;12.10;99.90;;;;;;4993764;28;20212;-66
2023/09/30 04:11:04;;;;;;;8.43;3.10;;;12.10;99.90;;;;;;4992737;28;20201;-66
2023/09/30 04:13:29;;;;;;;11.93;3.30;;;12.10;99.90;;;;;;4993797;28;20669;-66
2023/09/30 04:15:57;;;;;;;5.60;2.90;;;12.10;99.90;;;;;;4993707;28;20382;-67
2023/09/30 04:18:25;;;;;;;5.77;2.90;;;12.10;99.90;;;;;;4993585;28;20281;-68
2023/09/30 04:20:52;;;;;;;8.77;3.93;;;12.10;99.90;;;;;;4992631;28;20428;-68
2023/09/30 04:23:20;;;;;;;10.67;3.20;;;12.10;99.90;;;;;;4992998;28;20386;-66
2023/09/30 04:25:46;;;;;;;4.90;3.00;;;12.10;99.90;;;;;;4993489;28;20448;-69
2023/09/30 04:28:13;;;;;;;7.30;2.73;;;12.10;99.90;;;;;;4993500;28;20879;-70
2023/09/30 04:30:40;;;;;;;12.17;3.70;;;12.10;99.90;;;;;;4992466;28;20404;-70
2023/09/30 04:33:05;;;;;;;7.83;3.43;;;12.00;99.90;;;;;;4993694;28;20751;-68
2023/09/30 04:35:31;;;;;;;18.23;3.13;;;11.90;99.90;;;;;;4993764;28;20398;-66
2023/09/30 04:38:04;;;;;;;6.40;3.43;;;11.90;99.90;;;;;;4993546;28;20386;-69
2023/09/30 04:40:30;;;;;;;9.17;3.93;;;11.90;99.90;;;;;;4992544;28;20252;-68
2023/09/30 04:42:58;;;;;;;12.10;3.93;;;11.90;99.90;;;;;;4975480;28;20847;-69
2023/09/30 04:45:26;;;;;;;8.10;3.40;;;11.90;99.90;;;;;;4975911;28;20970;-69
2023/09/30 04:47:52;;;;;;;8.83;3.80;;;11.90;99.90;;;;;;4993627;28;20389;-68
2023/09/30 04:50:21;;;;;;;8.17;3.90;;;11.90;99.90;;;;;;4992535;28;20411;-66
2023/09/30 04:52:47;;;;;;;7.53;3.90;;;11.90;99.90;;;;;;4993301;28;20417;-66
2023/09/30 04:55:16;;;;;;;9.03;4.07;;;11.90;99.90;;;;;;4993437;28;20447;-69
2023/09/30 04:57:47;;;;;;;12.63;4.67;;;11.90;99.90;;;;;;4960277;28;20415;-68
2023/09/30 05:00:24;;;;;;;9.23;4.03;;;11.80;99.90;;;;;;4991911;28;20414;-67
2023/09/30 05:02:52;;;;;;;9.40;4.47;;;11.90;99.90;;;;;;4993113;28;20466;-67
2023/09/30 05:05:18;;;;;;;15.63;4.37;;;11.90;99.90;;;;;;4993272;28;20452;-66
2023/09/30 05:07:46;;;;;;;18.03;3.97;;;11.90;99.90;;;;;;4993259;28;20425;-67
2023/09/30 05:10:15;;;;;;;6.07;3.77;;;12.00;99.90;;;;;;4992319;28;20387;-69
2023/09/30 05:12:47;;;;;;;16.17;5.07;;;12.00;99.90;;;;;;4993581;28;20409;-67
2023/09/30 05:15:15;;;;;;;14.83;4.63;;;12.00;99.90;;;;;;4996659;28;20387;-69
2023/09/30 05:17:43;;;;;;;10.87;4.40;;;12.00;99.90;;;;;;4995905;28;20495;-66
2023/09/30 05:20:10;;;;;;;15.17;4.53;;;12.00;99.90;;;;;;4978266;28;20449;-68
2023/09/30 05:22:36;;;;;;;12.90;4.07;;;12.00;99.90;;;;;;4978889;28;20418;-71
2023/09/30 05:25:02;;;;;;;9.97;5.40;;;12.00;99.90;;;;;;4996534;28;20421;-67
2023/09/30 05:27:28;;;;;;;7.83;3.40;;;12.00;99.90;;;;;;4978930;28;20634;-69
2023/09/30 05:29:55;;;;;;;13.53;3.87;;;12.00;99.90;;;;;;4995484;28;20390;-66
2023/09/30 05:32:21;;;;;;;12.30;5.27;;;12.00;99.90;;;;;;4996386;28;20200;-66
2023/09/30 05:34:48;;;;;;;10.00;4.83;;;12.00;99.90;;;;;;4996288;28;20412;-69
2023/09/30 05:37:14;;;;;;;9.90;5.63;;;12.00;99.90;;;;;;4995497;28;20394;-69
2023/09/30 05:39:40;;;;;;;7.90;3.30;;;12.00;99.90;;;;;;4995357;28;20716;-69
2023/09/30 05:42:06;;;;;;;4.43;4.10;;;12.00;99.90;;;;;;4996033;28;20952;-69
2023/09/30 05:44:32;;;;;;;8.20;5.03;;;12.00;99.90;;;;;;4996288;28;20746;-69
2023/09/30 05:46:59;;;;;;;13.47;4.80;;;12.00;99.90;;;;;;4996001;28;20542;-69
2023/09/30 05:49:25;;;;;;;3.87;3.40;;;12.00;99.90;;;;;;4995775;28;20405;-67
2023/09/30 05:51:51;;;;;;;10.30;4.43;;;12.00;99.90;;;;;;4995254;28;20451;-67
2023/09/30 05:54:17;;;;;;;17.73;4.87;;;12.10;99.90;;;;;;4977874;28;20451;-67
2023/09/30 05:56:43;;;;;;;10.63;4.77;;;12.10;99.90;;;;;;4978659;28;20224;-66
2023/09/30 05:59:09;;;;;;;14.20;4.67;;;12.20;99.90;;;;;;4978369;28;20570;-70
2023/09/30 06:01:35;;;;;;;7.73;3.93;;;12.20;99.90;;;;;;4994868;28;20229;-67
2023/09/30 06:04:02;;;;;;;11.20;5.70;;;12.20;99.90;;;;;;4995788;28;20395;-67
2023/09/30 06:06:31;;;;;;;5.63;2.90;;;12.20;99.90;;;;;;4995689;28;20439;-65
2023/09/30 06:09:00;;;;;;;8.47;4.33;;;12.30;99.90;;;;;;4995886;28;20407;-67
2023/09/30 06:11:29;;;;;;;10.40;4.80;;;12.40;99.90;;;;;;4994687;28;20486;-68
2023/09/30 06:13:55;;;;;;;16.23;5.30;;;12.40;99.90;;;;;;4977626;28;20397;-68
2023/09/30 06:16:21;;;;;;;11.57;4.30;;;12.40;99.90;;;;;;4995727;28;20383;-66
2023/09/30 06:18:48;;;;;;;10.20;4.27;;;12.40;99.90;;;;;;4995688;28;20412;-68
2023/09/30 06:21:16;;;;;;;18.47;4.60;;;12.50;99.90;;;;;;4977088;28;20960;-70
2023/09/30 06:23:43;;;;;;;12.23;4.20;;;12.50;99.90;;;;;;4961639;28;20398;-66
2023/09/30 06:26:09;;;;;;;10.20;3.43;;;12.50;99.90;;;;;;4995368;28;20426;-68
2023/09/30 06:28:40;;;;;;;11.07;4.10;;;12.60;99.90;;;;;;4995064;28;20656;-69
2023/09/30 06:31:07;;;;;;;11.80;3.70;;;12.60;99.90;;;;;;4994172;28;20423;-66
2023/09/30 06:33:40;;;;;;;13.13;5.40;;;12.60;99.90;;;;;;4995155;28;20440;-68
2023/09/30 06:36:10;;;;;;;10.13;4.43;;;12.70;99.90;;;;;;4995396;28;20404;-66
2023/09/30 06:38:37;;;;;;;13.07;4.53;;;12.70;99.90;;;;;;4995219;28;20398;-66
2023/09/30 06:41:05;;;;;;;9.87;4.43;;;12.80;99.90;;;;;;4994500;28;20498;-68
2023/09/30 06:43:32;;;;;;;5.93;4.17;;;12.80;99.90;;;;;;4978212;28;20431;-67
2023/09/30 06:45:58;;;;;;;12.33;3.70;;;12.90;99.90;;;;;;4995027;28;20430;-67
2023/09/30 06:48:23;;;;;;;9.30;4.30;;;13.00;99.90;;;;;;4994841;28;20947;-69
2023/09/30 06:50:50;;;;;;;14.20;4.50;;;13.00;99.90;;;;;;4976100;28;20211;-68
2023/09/30 06:53:17;;;;;;;12.33;4.63;;;13.10;99.90;;;;;;4995150;28;20165;-68
2023/09/30 06:55:43;;;;;;;9.13;4.47;;;13.10;99.90;;;;;;4977495;28;20435;-69
2023/09/30 06:58:10;;;;;;;17.77;4.80;;;13.20;99.90;;;;;;4977669;28;20390;-68
2023/09/30 07:00:37;;;;;;;12.57;4.47;;;13.20;99.90;;;;;;4993921;28;20415;-67
2023/09/30 07:03:06;;;;;;;13.40;4.67;;;13.30;99.90;;;;;;4994812;28;20390;-66
2023/09/30 07:05:32;;;;;;;10.37;4.13;;;13.20;99.90;;;;;;4994593;28;20487;-69
2023/09/30 07:07:59;;;;;;;12.03;3.37;;;13.30;99.90;;;;;;4976567;28;20498;-69
2023/09/30 07:10:24;;;;;;;9.07;3.23;;;13.30;99.90;;;;;;4976914;28;20577;-68
2023/09/30 07:12:50;;;;;;;12.07;3.70;;;13.30;99.90;;;;;;4994486;28;20421;-68
2023/09/30 07:15:16;;;;;;;8.90;3.43;;;13.40;99.90;;;;;;4994571;28;20180;-67
2023/09/30 07:17:46;;;;;;;10.00;4.80;;;13.50;99.90;;;;;;4994418;28;20181;-68
2023/09/30 07:20:12;;;;;;;9.80;4.33;;;13.50;99.90;;;;;;4944492;28;20921;-66
2023/09/30 07:22:37;;;;;;;9.40;3.87;;;13.60;99.90;;;;;;4994644;28;20436;-68
2023/09/30 07:25:04;;;;;;;12.37;4.90;;;13.60;99.90;;;;;;4976405;28;20212;-69
2023/09/30 07:27:30;;;;;;;10.43;3.00;;;13.60;99.90;;;;;;4960795;28;20455;-66
2023/09/30 07:29:56;;;;;;;9.23;3.37;;;13.70;99.90;;;;;;4959913;28;20415;-71
2023/09/30 07:32:25;;;;;;;11.10;3.40;;;13.80;99.90;;;;;;4994248;28;20499;-67
2023/09/30 07:34:53;;;;;;;8.17;4.67;;;13.90;99.90;;;;;;4977277;28;20184;-68
2023/09/30 07:37:20;;;;;;;10.47;3.90;;;14.00;99.90;;;;;;4976736;28;20381;-68
2023/09/30 07:39:46;;;;;;;10.77;3.63;;;14.00;99.90;;;;;;4976521;28;20386;-69
2023/09/30 07:42:14;;;;;;;8.27;4.37;;;14.10;99.90;;;;;;4976660;28;20996;-69
2023/09/30 07:44:42;;;;;;;11.03;3.97;;;14.10;99.90;;;;;;4976215;28;20177;-69
2023/09/30 07:47:11;;;;;;;12.30;3.63;;;14.20;99.90;;;;;;4960836;28;20439;-68
2023/09/30 07:49:39;;;;;;;8.03;3.67;;;14.30;99.90;;;;;;4961178;28;20837;-67
2023/09/30 07:52:04;;;;;;;11.93;4.10;;;14.40;99.90;;;;;;4960490;28;20534;-68
2023/09/30 07:54:30;;;;;;;11.63;3.80;;;14.50;99.90;;;;;;4976569;28;20507;-66
2023/09/30 07:56:57;;;;;;;8.40;3.23;;;14.60;99.90;;;;;;4993911;28;20192;-67
2023/09/30 07:59:24;;;;;;;17.40;4.20;;;14.60;99.90;;;;;;4993732;28;20451;-67
2023/09/30 08:01:49;;;;;;;14.23;4.00;;;14.80;99.90;;;;;;4975988;28;20438;-68
2023/09/30 08:04:16;;;;;;;12.23;3.63;;;14.90;99.90;;;;;;4975665;28;20173;-68
2023/09/30 08:06:44;;;;;;;6.47;4.03;;;14.90;99.90;;;;;;4976829;28;20216;-66
2023/09/30 08:09:50;;;;;;;14.60;4.07;;;15.00;99.90;;;;;;4960967;28;20420;-68
2023/09/30 08:12:17;;;;;;;13.80;4.63;;;15.00;99.90;;;;;;4993534;28;20419;-67
2023/09/30 08:14:44;;;;;;;12.00;4.00;;;15.10;99.90;;;;;;4975935;28;20528;-68
2023/09/30 08:17:12;;;;;;;16.83;5.33;;;15.20;99.90;;;;;;4960511;28;20420;-68
2023/09/30 08:19:40;;;;;;;9.87;3.50;;;15.30;99.90;;;;;;4993026;28;20404;-67
2023/09/30 08:22:07;;;;;;;8.83;3.00;;;15.40;99.90;;;;;;4976442;28;20436;-69
2023/09/30 08:24:33;;;;;;;9.70;4.00;;;15.50;99.90;;;;;;4976069;28;20420;-69
2023/09/30 08:27:01;;;;;;;11.20;3.80;;;15.60;99.90;;;;;;4993632;28;20456;-68
2023/09/30 08:29:28;;;;;;;10.90;3.37;;;15.60;99.90;;;;;;4993429;28;20454;-68
2023/09/30 08:31:54;;;;;;;20.13;3.03;;;15.70;99.90;;;;;;4960048;28;20570;-68
2023/09/30 08:34:23;;;;;;;8.30;3.80;;;15.90;99.90;;;;;;4975706;28;20511;-68
2023/09/30 08:36:49;;;;;;;14.30;3.00;;;15.90;99.90;;;;;;4960426;28;20281;-68
2023/09/30 08:39:15;;;;;;;12.13;3.10;;;16.10;99.90;;;;;;4976385;28;20415;-79
2023/09/30 08:41:44;;;;;;;9.37;2.60;;;16.20;99.90;;;;;;4992339;28;20200;-66
2023/09/30 08:44:12;;;;;;;8.13;3.43;;;16.20;99.90;;;;;;4992996;28;20185;-70
2023/09/30 08:46:40;;;;;;;18.00;4.27;;;16.30;99.90;;;;;;4993908;28;20462;-67
2023/09/30 08:49:08;;;;;;;13.07;2.97;;;16.40;99.90;;;;;;4964136;28;20428;-68
2023/09/30 08:51:36;;;;;;;11.17;3.47;;;16.40;99.90;;;;;;4979409;28;20499;-67
2023/09/30 08:54:05;;;;;;;6.80;2.83;;;16.40;99.90;;;;;;4979874;28;20499;-66
2023/09/30 08:56:35;;;;;;;17.13;3.20;;;16.60;99.90;;;;;;4996980;28;20424;-67
2023/09/30 08:59:03;;;;;;;9.93;2.97;;;16.70;99.90;;;;;;4963895;28;20447;-67
2023/09/30 09:01:32;;;;;;;6.67;2.37;;;16.80;99.90;;;;;;4978866;28;20523;-68
2023/09/30 09:06:45;;;;;;;9.43;3.63;;;17.30;99.90;;;;;;4955034;28;20962;-68
2023/09/30 09:09:22;;;;;;;16.33;3.37;;;17.60;99.90;;;;;;4996973;28;20435;-68
2023/09/30 09:11:48;;;;;;;8.10;2.37;;;17.80;99.90;;;;;;4994272;28;20263;-69
2023/09/30 09:14:15;;;;;;;9.73;2.50;;;18.10;95.00;;;;;;4963077;28;20426;-66
2023/09/30 09:16:54;;;;;;;8.33;2.60;;;18.30;91.80;;;;;;4978765;28;20448;-67
2023/09/30 09:19:21;;;;;;;8.73;2.57;;;18.40;46.80;;;;;;4947422;28;20523;-66
2023/09/30 09:21:59;;;;;;;15.60;2.27;;;18.50;39.40;;;;;;4966398;28;20449;-66
2023/09/30 09:24:34;;;;;;;8.40;2.40;;;18.50;1.00;;;;;;4963727;28;20548;-67
2023/09/30 09:27:19;;;;;;;7.37;2.47;;;18.40;1.00;;;;;;4976561;28;20551;-78
2023/09/30 09:29:47;;;;;;;8.17;2.67;;;18.40;1.00;;;;;;4995663;28;20408;-67
2023/09/30 09:32:15;;;;;;;11.10;3.70;;;18.60;1.00;;;;;;4978967;28;20480;-67
2023/09/30 09:34:44;;;;;;;6.80;2.43;;;19.00;1.00;;;;;;4995754;28;20765;-67
2023/09/30 09:37:18;;;;;;;13.37;2.87;;;19.30;1.00;;;;;;4996317;28;20773;-66
2023/09/30 09:39:55;;;;;;;7.70;2.87;;;19.20;1.00;;;;;;4995662;28;20761;-66
2023/09/30 09:42:26;;;;;;;12.27;3.27;;;19.00;1.00;;;;;;4996402;28;20503;-66
2023/09/30 09:45:02;;;;;;;12.23;2.60;;;19.10;1.00;;;;;;4995910;28;20408;-68
2023/09/30 09:47:31;;;;;;;9.37;2.20;;;19.30;1.00;;;;;;4996260;28;20471;-67
2023/09/30 09:50:02;;;;;;;9.30;2.57;;;19.40;1.00;;;;;;4962197;28;20467;-68
2023/09/30 09:52:31;;;;;;;6.60;2.23;;;19.60;1.00;;;;;;4995509;28;21004;-66
2023/09/30 09:54:58;;;;;;;8.60;3.20;;;19.70;1.00;;;;;;4962888;28;20428;-68
2023/09/30 09:57:25;;;;;;;10.03;2.03;;;19.60;1.00;;;;;;4995444;28;20482;-66
2023/09/30 09:59:53;;;;;;;10.33;2.50;;;19.10;1.00;;;;;;4961029;28;20609;-66
2023/09/30 10:02:22;;;;;;;15.43;4.10;;;18.70;1.00;;;;;;4979122;28;20444;-67
2023/09/30 10:04:49;;;;;;;12.40;2.43;;;18.40;1.00;;;;;;4978701;28;20431;-67
2023/09/30 10:07:25;;;;;;;9.03;3.57;;;18.20;1.00;;;;;;4978384;28;20836;-67
2023/09/30 10:09:54;;;;;;;3.67;2.90;;;17.90;1.00;;;;;;4977044;28;21016;-67
2023/09/30 10:12:23;;;;;;;5.53;2.43;;;17.70;1.00;;;;;;4962851;28;20495;-67
2023/09/30 10:14:51;;;;;;;8.30;3.00;;;17.40;1.00;;;;;;4995307;28;20500;-67
2023/09/30 10:17:17;;;;;;;11.80;4.53;;;17.30;1.00;;;;;;4978697;28;20415;-66
2023/09/30 10:20:10;;;;;;;3.20;1.90;;;17.40;1.00;;;;;;4961366;28;20821;-68
2023/09/30 10:22:36;;;;;;;9.23;2.70;;;18.00;1.00;;;;;;4978725;28;20236;-67
2023/09/30 10:25:33;;;;;;;13.03;2.80;;;18.50;1.00;;;;;;4994910;28;20987;-67
2023/09/30 10:28:40;;;;;;;9.80;2.23;;;18.90;1.00;;;;;;4990032;28;20424;-67
2023/09/30 10:31:15;;;;;;;6.73;3.50;;;19.40;1.00;;;;;;4994191;28;20432;-66
2023/09/30 10:34:01;;;;;;;13.27;2.40;;;20.00;1.00;;;;;;4977776;28;20946;-66
2023/09/30 10:36:37;;;;;;;10.43;2.40;;;20.20;1.00;;;;;;4995132;28;20408;-67
2023/09/30 10:39:08;;;;;;;9.43;2.53;;;20.20;1.00;;;;;;4979169;28;20564;-67
2023/09/30 10:41:48;;;;;;;6.73;2.30;;;20.30;1.00;;;;;;4977654;28;20937;-67
2023/09/30 10:44:30;;;;;;;6.37;2.63;;;20.20;1.00;;;;;;4994981;28;20411;-67
2023/09/30 10:47:24;;;;;;;16.43;4.23;;;20.40;1.00;;;;;;4977311;28;20463;-67
2023/09/30 10:49:53;;;;;;;7.30;2.20;;;20.70;1.00;;;;;;4994259;28;20416;-67
2023/09/30 10:52:26;;;;;;;6.43;2.33;;;20.90;1.00;;;;;;4978146;28;20432;-66
2023/09/30 10:54:53;;;;;;;7.00;2.97;;;20.70;1.00;;;;;;4977467;28;20431;-67
2023/09/30 10:57:29;;;;;;;8.00;2.33;;;20.60;1.00;;;;;;4961638;28;20494;-68
2023/09/30 11:00:11;;;;;;;5.87;1.90;;;20.40;1.00;;;;;;4994090;28;20548;-67
2023/09/30 11:02:51;;;;;;;9.70;1.80;;;20.30;1.00;;;;;;4960847;28;20539;-66
2023/09/30 11:05:20;;;;;;;10.23;2.30;;;20.30;1.00;;;;;;4977333;28;20447;-67
2023/09/30 11:07:57;;;;;;;6.20;1.87;;;20.10;1.00;;;;;;4963541;28;20431;-67
2023/09/30 11:10:25;;;;;;;11.57;2.63;;;19.70;1.00;;;;;;4993866;28;20412;-66
2023/09/30 11:12:57;;;;;;;7.10;2.70;;;19.60;1.00;;;;;;4977481;28;20466;-67
2023/09/30 11:15:27;;;;;;;10.40;2.10;;;19.50;1.00;;;;;;4994673;28;20447;-68
2023/09/30 11:17:53;;;;;;;6.53;2.10;;;19.30;1.00;;;;;;4994439;28;20451;-67
2023/09/30 11:20:20;;;;;;;3.53;1.57;;;19.10;1.00;;;;;;4975065;28;20420;-67
2023/09/30 11:22:48;;;;;;;5.33;2.20;;;18.80;1.00;;;;;;4994300;28;20435;-67
2023/09/30 11:25:19;;;;;;;8.27;2.07;;;18.80;1.00;;;;;;4961075;28;20487;-67
2023/09/30 11:27:46;;;;;;;5.40;1.83;;;19.10;1.00;;;;;;4977196;28;20893;-67
2023/09/30 11:30:14;;;;;;;7.10;2.53;;;19.40;1.00;;;;;;4960296;28;20413;-67
2023/09/30 11:32:43;;;;;;;6.70;3.37;;;19.70;1.00;;;;;;4977291;28;20888;-67
2023/09/30 11:35:22;;;;;;;6.70;2.97;;;19.80;1.00;;;;;;4994257;28;20781;-66
2023/09/30 11:37:51;;;;;;;6.50;1.87;;;19.80;1.00;;;;;;4946197;28;20448;-68
2023/09/30 11:40:20;;;;;;;7.07;2.03;;;20.00;1.00;;;;;;4975134;28;20416;-67
2023/09/30 11:43:11;;;;;;;5.23;2.00;;;20.10;1.00;;;;;;4961622;28;20568;-67
2023/09/30 11:45:37;;;;;;;8.17;2.00;;;20.10;1.00;;;;;;4976986;28;20527;-70
2023/09/30 11:48:18;;;;;;;6.00;1.97;;;20.00;1.00;;;;;;4960678;28;20862;-67
2023/09/30 11:50:49;;;;;;;6.30;1.97;;;20.00;1.00;;;;;;4944369;28;20181;-66
2023/09/30 11:53:20;;;;;;;8.70;2.13;;;20.00;1.00;;;;;;4960769;28;20905;-66
2023/09/30 11:55:46;;;;;;;7.13;2.30;;;19.70;1.00;;;;;;4993072;28;20420;-71
2023/09/30 11:58:18;;;;;;;7.50;2.27;;;19.50;1.00;;;;;;4975706;28;20439;-67
2023/09/30 12:00:45;;;;;;;9.90;2.30;;;19.20;1.00;;;;;;4975885;28;20192;-67
2023/09/30 12:03:14;;;;;;;3.10;1.67;;;19.00;1.00;;;;;;4977042;28;20408;-67
2023/09/30 12:05:40;;;;;;;7.60;1.90;;;18.60;1.00;;;;;;4993710;28;21047;-68
2023/09/30 12:08:06;;;;;;;4.67;2.00;;;18.30;1.00;;;;;;4976515;28;20515;-67
2023/09/30 12:10:33;;;;;;;8.93;2.30;;;18.10;1.00;;;;;;4992880;28;20180;-66
2023/09/30 12:13:00;;;;;;;10.33;3.00;;;18.00;1.00;;;;;;4993227;28;20404;-71
2023/09/30 12:15:26;;;;;;;6.87;2.13;;;18.00;1.00;;;;;;4975650;28;20296;-67
2023/09/30 12:17:53;;;;;;;11.60;3.23;;;18.00;1.00;;;;;;4959606;28;20444;-70
2023/09/30 12:20:18;;;;;;;8.70;2.17;;;17.90;1.00;;;;;;4991999;28;20423;-71
2023/09/30 12:22:45;;;;;;;8.10;2.90;;;17.90;1.00;;;;;;4995991;28;20424;-68
2023/09/30 12:25:10;;;;;;;6.23;2.57;;;17.90;1.00;;;;;;4980355;28;20292;-68
2023/09/30 12:27:39;;;;;;;5.50;1.63;;;18.00;1.00;;;;;;4964104;28;20428;-68
2023/09/30 12:30:06;;;;;;;7.73;2.30;;;18.10;1.00;;;;;;4979167;28;20231;-72
2023/09/30 12:32:34;;;;;;;7.43;2.03;;;18.10;1.00;;;;;;4979897;28;20845;-68
2023/09/30 12:35:04;;;;;;;7.67;3.13;;;18.00;1.00;;;;;;4996782;28;20479;-67
2023/09/30 12:37:30;;;;;;;11.43;2.17;;;17.90;1.00;;;;;;4996877;28;20484;-68
2023/09/30 12:39:57;;;;;;;5.60;2.10;;;18.00;1.00;;;;;;4996130;28;20850;-68
2023/09/30 12:42:23;;;;;;;6.27;2.90;;;18.20;1.00;;;;;;4997123;28;20197;-68
2023/09/30 12:44:49;;;;;;;8.17;2.27;;;18.50;1.00;;;;;;4997626;28;20408;-67
2023/09/30 12:47:15;;;;;;;5.53;2.03;;;19.10;1.00;;;;;;4980150;28;20200;-67
2023/09/30 12:49:40;;;;;;;6.03;2.03;;;20.20;1.00;;;;;;4963046;28;20893;-67
2023/09/30 12:52:07;;;;;;;7.13;3.50;;;21.20;1.00;;;;;;4963880;28;20205;-67
2023/09/30 12:54:34;;;;;;;4.30;1.60;;;21.80;1.00;;;;;;4979577;28;20232;-68